createdAt,value
2018-09-20T00:00:24.655Z,0
2018-09-20T00:01:32.448Z,0
2018-09-20T00:02:40.528Z,0
2018-09-20T00:03:48.368Z,0
2018-09-20T00:04:57.013Z,0
2018-09-20T00:06:05.292Z,0
2018-09-20T00:07:15.455Z,0
2018-09-20T00:08:23.398Z,0
2018-09-20T00:09:30.280Z,0
2018-09-20T00:10:38.410Z,0
2018-09-20T00:11:45.879Z,0
2018-09-20T00:12:53.079Z,0
2018-09-20T00:14:02.580Z,0
2018-09-20T00:15:11.298Z,0
2018-09-20T00:16:20.810Z,0
2018-09-20T00:17:29.231Z,0
2018-09-20T00:18:38.267Z,0
2018-09-20T00:19:46.030Z,0
2018-09-20T00:20:56.824Z,0
2018-09-20T00:22:04.166Z,0
2018-09-20T00:23:11.250Z,0
2018-09-20T00:24:19.216Z,0
2018-09-20T00:25:24.453Z,0
2018-09-20T00:26:32.457Z,0
2018-09-20T00:27:41.791Z,0
2018-09-20T00:28:51.252Z,0
2018-09-20T00:29:58.354Z,0
2018-09-20T00:31:06.393Z,0
2018-09-20T00:32:14.256Z,0
2018-09-20T00:33:21.753Z,0
2018-09-20T00:34:28.969Z,0
2018-09-20T00:35:37.442Z,0
2018-09-20T00:36:43.724Z,0
2018-09-20T00:37:52.658Z,0
2018-09-20T00:39:02.249Z,0
2018-09-20T00:40:11.285Z,0
2018-09-20T00:41:19.327Z,0
2018-09-20T00:42:25.823Z,0
2018-09-20T00:43:28.961Z,0
2018-09-20T00:44:35.732Z,0
2018-09-20T00:45:41.126Z,0
2018-09-20T00:46:44.761Z,0
2018-09-20T00:47:51.042Z,0
2018-09-20T00:48:56.874Z,0
2018-09-20T00:50:03.301Z,0
2018-09-20T00:51:08.117Z,0
2018-09-20T00:52:13.880Z,0
2018-09-20T00:53:20.158Z,0
2018-09-20T00:54:26.923Z,0
2018-09-20T00:55:31.786Z,0
2018-09-20T00:56:36.835Z,0
2018-09-20T00:57:42.887Z,0
2018-09-20T00:58:46.470Z,0
2018-09-20T00:59:49.375Z,0
2018-09-20T01:00:53.268Z,0
2018-09-20T01:01:58.050Z,0
2018-09-20T01:03:02.143Z,0
2018-09-20T01:04:06.007Z,0
2018-09-20T01:05:08.884Z,0
2018-09-20T01:06:11.884Z,0
2018-09-20T01:07:14.783Z,0
2018-09-20T01:08:19.643Z,0
2018-09-20T01:09:22.379Z,0
2018-09-20T01:10:25.645Z,0
2018-09-20T01:11:28.153Z,0
2018-09-20T01:12:30.779Z,0
2018-09-20T01:13:33.656Z,0
2018-09-20T01:14:36.897Z,0
2018-09-20T01:15:39.466Z,0
2018-09-20T01:16:42.006Z,0
2018-09-20T01:17:44.358Z,0
2018-09-20T01:18:47.469Z,0
2018-09-20T01:19:49.883Z,0
2018-09-20T01:20:52.667Z,0
2018-09-20T01:21:54.773Z,0
2018-09-20T01:22:57.780Z,0
2018-09-20T01:24:00.085Z,0
2018-09-20T01:25:03.121Z,0
2018-09-20T01:26:05.767Z,0
2018-09-20T01:27:08.367Z,0
2018-09-20T01:28:10.402Z,0
2018-09-20T01:29:12.442Z,0
2018-09-20T01:30:15.050Z,0
2018-09-20T01:31:17.397Z,0
2018-09-20T01:32:19.807Z,0
2018-09-20T01:33:23.852Z,0
2018-09-20T01:34:28.060Z,0
2018-09-20T01:35:33.781Z,0
2018-09-20T01:36:39.809Z,0
2018-09-20T01:37:46.082Z,0
2018-09-20T01:38:50.956Z,0
2018-09-20T01:39:55.725Z,0
2018-09-20T01:40:59.389Z,0
2018-09-20T01:42:04.248Z,0
2018-09-20T01:43:09.246Z,0
2018-09-20T01:44:14.409Z,0
2018-09-20T01:45:20.711Z,0
2018-09-20T01:46:27.217Z,0
2018-09-20T01:47:32.964Z,0
2018-09-20T01:48:38.520Z,0
2018-09-20T01:49:43.219Z,0
2018-09-20T01:50:50.117Z,0
2018-09-20T01:51:53.511Z,0
2018-09-20T01:52:57.560Z,0
2018-09-20T01:54:02.767Z,0
2018-09-20T01:55:09.066Z,0
2018-09-20T01:56:14.420Z,0
2018-09-20T01:57:19.568Z,0
2018-09-20T01:58:25.852Z,0
2018-09-20T01:59:30.841Z,0
2018-09-20T02:00:35.636Z,0
2018-09-20T02:01:40.039Z,0
2018-09-20T02:02:44.432Z,0
2018-09-20T02:03:50.413Z,0
2018-09-20T02:04:56.517Z,0
2018-09-20T02:05:58.553Z,0
2018-09-20T02:07:00.571Z,0
2018-09-20T02:08:02.868Z,0
2018-09-20T02:09:05.164Z,0
2018-09-20T02:10:07.576Z,0
2018-09-20T02:11:09.601Z,0
2018-09-20T02:12:11.976Z,0
2018-09-20T02:13:14.797Z,0
2018-09-20T02:14:17.195Z,0
2018-09-20T02:15:20.521Z,0
2018-09-20T02:16:22.738Z,0
2018-09-20T02:17:25.016Z,0
2018-09-20T02:18:27.267Z,0
2018-09-20T02:19:29.714Z,0
2018-09-20T02:20:31.839Z,0
2018-09-20T02:21:34.215Z,0
2018-09-20T02:22:37.191Z,0
2018-09-20T02:23:40.615Z,0
2018-09-20T02:24:42.824Z,0
2018-09-20T02:25:45.550Z,0
2018-09-20T02:26:47.946Z,0
2018-09-20T02:27:50.473Z,0
2018-09-20T02:28:53.086Z,0
2018-09-20T02:29:55.305Z,0
2018-09-20T02:30:57.722Z,0
2018-09-20T02:32:00.272Z,0
2018-09-20T02:33:02.846Z,0
2018-09-20T02:34:05.477Z,0
2018-09-20T02:35:08.381Z,0
2018-09-20T02:36:10.880Z,0
2018-09-20T02:37:13.365Z,0
2018-09-20T02:38:15.925Z,0
2018-09-20T02:39:18.664Z,0
2018-09-20T02:40:21.830Z,0
2018-09-20T02:41:24.730Z,0
2018-09-20T02:42:28.237Z,0
2018-09-20T02:43:31.193Z,0
2018-09-20T02:44:33.720Z,0
2018-09-20T02:45:36.518Z,0
2018-09-20T02:46:38.960Z,0
2018-09-20T02:47:42.945Z,0
2018-09-20T02:48:45.111Z,0
2018-09-20T02:49:47.288Z,0
2018-09-20T02:50:49.964Z,0
2018-09-20T02:51:52.431Z,0
2018-09-20T02:52:54.847Z,0
2018-09-20T02:53:57.808Z,0
2018-09-20T02:55:01.818Z,0
2018-09-20T02:56:05.554Z,0
2018-09-20T02:57:10.338Z,0
2018-09-20T02:58:13.995Z,0
2018-09-20T02:59:16.861Z,0
2018-09-20T03:00:20.122Z,0
2018-09-20T03:01:22.611Z,0
2018-09-20T03:02:27.001Z,0
2018-09-20T03:03:30.515Z,0
2018-09-20T03:04:33.593Z,0
2018-09-20T03:05:35.832Z,0
2018-09-20T03:06:38.300Z,0
2018-09-20T03:07:40.689Z,0
2018-09-20T03:08:43.013Z,0
2018-09-20T03:09:45.742Z,0
2018-09-20T03:10:48.469Z,0
2018-09-20T03:11:51.332Z,0
2018-09-20T03:12:54.025Z,0
2018-09-20T03:13:56.345Z,0
2018-09-20T03:14:58.741Z,0
2018-09-20T03:16:01.939Z,0
2018-09-20T03:17:04.568Z,0
2018-09-20T03:18:07.114Z,0
2018-09-20T03:19:10.469Z,0
2018-09-20T03:20:12.718Z,0
2018-09-20T03:21:15.515Z,0
2018-09-20T03:22:17.996Z,0
2018-09-20T03:23:20.191Z,0
2018-09-20T03:24:22.861Z,0
2018-09-20T03:25:25.902Z,0
2018-09-20T03:26:28.456Z,0
2018-09-20T03:27:31.171Z,0
2018-09-20T03:28:33.848Z,0
2018-09-20T03:29:36.244Z,0
2018-09-20T03:30:38.802Z,0
2018-09-20T03:31:41.346Z,0
2018-09-20T03:32:44.219Z,0
2018-09-20T03:33:46.701Z,0
2018-09-20T03:34:49.323Z,0
2018-09-20T03:35:51.944Z,0
2018-09-20T03:36:54.280Z,0
2018-09-20T03:37:57.282Z,0
2018-09-20T03:39:00.447Z,0
2018-09-20T03:40:04.647Z,0
2018-09-20T03:41:07.976Z,0
2018-09-20T03:42:10.169Z,0
2018-09-20T03:43:12.898Z,0
2018-09-20T03:44:15.462Z,0
2018-09-20T03:45:18.855Z,0
2018-09-20T03:46:21.314Z,0
2018-09-20T03:47:23.661Z,0
2018-09-20T03:48:26.363Z,0
2018-09-20T03:49:28.599Z,0
2018-09-20T03:50:31.274Z,0
2018-09-20T03:51:33.741Z,0
2018-09-20T03:52:36.017Z,0
2018-09-20T03:53:39.134Z,0
2018-09-20T03:54:41.694Z,0
2018-09-20T03:55:44.900Z,0
2018-09-20T03:56:48.760Z,0
2018-09-20T03:57:51.138Z,0
2018-09-20T03:58:53.915Z,0
2018-09-20T03:59:56.060Z,0
2018-09-20T04:00:58.083Z,0
2018-09-20T04:02:00.143Z,0
2018-09-20T04:03:02.232Z,0
2018-09-20T04:04:04.327Z,0
2018-09-20T04:05:06.522Z,0
2018-09-20T04:06:09.373Z,0
2018-09-20T04:07:11.968Z,0
2018-09-20T04:08:14.042Z,0
2018-09-20T04:09:16.499Z,0
2018-09-20T04:10:18.616Z,0
2018-09-20T04:11:20.910Z,0
2018-09-20T04:12:23.341Z,0
2018-09-20T04:13:25.381Z,0
2018-09-20T04:14:27.788Z,0
2018-09-20T04:15:29.806Z,0
2018-09-20T04:16:32.647Z,0
2018-09-20T04:17:34.829Z,0
2018-09-20T04:18:37.656Z,0
2018-09-20T04:19:40.013Z,0
2018-09-20T04:20:42.219Z,0
2018-09-20T04:21:44.610Z,0
2018-09-20T04:22:46.940Z,4
2018-09-20T04:23:49.123Z,4
2018-09-20T04:24:51.205Z,0
2018-09-20T04:25:53.758Z,0
2018-09-20T04:26:56.256Z,4
2018-09-20T04:27:58.343Z,4
2018-09-20T04:29:00.782Z,4
2018-09-20T04:30:03.879Z,8
2018-09-20T04:31:06.440Z,4
2018-09-20T04:32:09.536Z,8
2018-09-20T04:33:12.045Z,12
2018-09-20T04:34:15.255Z,12
2018-09-20T04:35:18.339Z,16
2018-09-20T04:36:21.132Z,20
2018-09-20T04:37:23.954Z,24
2018-09-20T04:38:27.046Z,28
2018-09-20T04:39:29.495Z,32
2018-09-20T04:40:33.104Z,40
2018-09-20T04:41:35.468Z,48
2018-09-20T04:42:37.532Z,56
2018-09-20T04:43:39.828Z,68
2018-09-20T04:44:42.139Z,80
2018-09-20T04:45:44.309Z,96
2018-09-20T04:46:46.442Z,112
2018-09-20T04:47:48.539Z,128
2018-09-20T04:48:50.703Z,140
2018-09-20T04:49:53.549Z,152
2018-09-20T04:50:55.724Z,160
2018-09-20T04:51:57.782Z,172
2018-09-20T04:52:59.890Z,188
2018-09-20T04:54:02.014Z,204
2018-09-20T04:55:04.145Z,216
2018-09-20T04:56:06.978Z,228
2018-09-20T04:57:09.584Z,244
2018-09-20T04:58:12.305Z,264
2018-09-20T04:59:15.883Z,292
2018-09-20T05:00:18.082Z,320
2018-09-20T05:01:20.664Z,352
2018-09-20T05:02:22.776Z,392
2018-09-20T05:03:24.952Z,432
2018-09-20T05:04:27.137Z,476
2018-09-20T05:05:29.585Z,512
2018-09-20T05:06:31.897Z,548
2018-09-20T05:07:34.293Z,592
2018-09-20T05:08:36.329Z,644
2018-09-20T05:09:38.680Z,708
2018-09-20T05:10:41.072Z,780
2018-09-20T05:11:43.573Z,860
2018-09-20T05:12:45.891Z,936
2018-09-20T05:13:48.226Z,1016
2018-09-20T05:14:50.659Z,1088
2018-09-20T05:15:52.830Z,1140
2018-09-20T05:16:55.168Z,1176
2018-09-20T05:17:57.575Z,1196
2018-09-20T05:19:00.154Z,1220
2018-09-20T05:20:02.345Z,1256
2018-09-20T05:21:04.664Z,1300
2018-09-20T05:22:06.819Z,1352
2018-09-20T05:23:08.869Z,1408
2018-09-20T05:24:11.080Z,1468
2018-09-20T05:25:13.632Z,1524
2018-09-20T05:26:15.859Z,1576
2018-09-20T05:27:18.742Z,1620
2018-09-20T05:28:20.874Z,1672
2018-09-20T05:29:23.193Z,1724
2018-09-20T05:30:25.723Z,1788
2018-09-20T05:31:28.223Z,1856
2018-09-20T05:32:30.910Z,1928
2018-09-20T05:33:34.528Z,1976
2018-09-20T05:34:37.645Z,2048
2018-09-20T05:35:40.567Z,2124
2018-09-20T05:36:44.793Z,2220
2018-09-20T05:37:47.752Z,2300
2018-09-20T05:38:51.303Z,2348
2018-09-20T05:39:55.075Z,2432
2018-09-20T05:40:59.542Z,2564
2018-09-20T05:42:04.896Z,2692
2018-09-20T05:43:09.287Z,2784
2018-09-20T05:44:12.762Z,2876
2018-09-20T05:45:17.532Z,3000
2018-09-20T05:46:20.123Z,3092
2018-09-20T05:47:22.320Z,3168
2018-09-20T05:48:26.056Z,3188
2018-09-20T05:49:30.293Z,3188
2018-09-20T05:50:34.728Z,3196
2018-09-20T05:51:37.467Z,3184
2018-09-20T05:52:40.315Z,3192
2018-09-20T05:53:44.704Z,3212
2018-09-20T05:54:49.363Z,3244
2018-09-20T05:55:54.114Z,3292
2018-09-20T05:56:56.474Z,3336
2018-09-20T05:57:59.672Z,3388
2018-09-20T05:59:02.196Z,3436
2018-09-20T06:00:05.119Z,3484
2018-09-20T06:01:07.625Z,3508
2018-09-20T06:02:10.367Z,3504
2018-09-20T06:03:14.076Z,3452
2018-09-20T06:04:17.535Z,3352
2018-09-20T06:05:19.958Z,3356
2018-09-20T06:06:22.888Z,3416
2018-09-20T06:07:25.808Z,3508
2018-09-20T06:08:28.932Z,3688
2018-09-20T06:09:31.571Z,3792
2018-09-20T06:10:34.381Z,3800
2018-09-20T06:11:38.724Z,3784
2018-09-20T06:12:40.806Z,3892
2018-09-20T06:13:43.895Z,4020
2018-09-20T06:14:46.767Z,4036
2018-09-20T06:15:49.261Z,4016
2018-09-20T06:16:52.057Z,4060
2018-09-20T06:17:54.485Z,4080
2018-09-20T06:18:56.528Z,4096
2018-09-20T06:19:58.966Z,4100
2018-09-20T06:21:01.090Z,4100
2018-09-20T06:22:03.187Z,4116
2018-09-20T06:23:08.346Z,4152
2018-09-20T06:24:13.797Z,4216
2018-09-20T06:25:19.788Z,4252
2018-09-20T06:26:25.207Z,4244
2018-09-20T06:27:31.585Z,4248
2018-09-20T06:28:38.539Z,4240
2018-09-20T06:29:43.152Z,4216
2018-09-20T06:30:48.643Z,4236
2018-09-20T06:31:55.224Z,4276
2018-09-20T06:33:00.572Z,4324
2018-09-20T06:34:08.170Z,4320
2018-09-20T06:35:15.313Z,4220
2018-09-20T06:36:22.781Z,4192
2018-09-20T06:37:31.905Z,4348
2018-09-20T06:38:39.099Z,4420
2018-09-20T06:39:42.159Z,4464
2018-09-20T06:40:49.624Z,4528
2018-09-20T06:41:55.938Z,4540
2018-09-20T06:43:01.370Z,4592
2018-09-20T06:44:06.531Z,4568
2018-09-20T06:45:10.519Z,4544
2018-09-20T06:46:15.351Z,4600
2018-09-20T06:47:23.411Z,4668
2018-09-20T06:48:29.861Z,4704
2018-09-20T06:49:36.186Z,4696
2018-09-20T06:50:42.914Z,4736
2018-09-20T06:51:47.364Z,4772
2018-09-20T06:52:53.286Z,4816
2018-09-20T06:53:59.760Z,4824
2018-09-20T06:55:04.402Z,4816
2018-09-20T06:56:09.992Z,4972
2018-09-20T06:57:17.365Z,4996
2018-09-20T06:58:23.932Z,5028
2018-09-20T06:59:29.233Z,5036
2018-09-20T07:00:34.052Z,5048
2018-09-20T07:01:38.701Z,5092
2018-09-20T07:02:45.978Z,5104
2018-09-20T07:03:55.426Z,5168
2018-09-20T07:05:01.615Z,5172
2018-09-20T07:06:07.026Z,5112
2018-09-20T07:07:11.980Z,5076
2018-09-20T07:08:16.482Z,5112
2018-09-20T07:09:22.399Z,5176
2018-09-20T07:10:28.243Z,5236
2018-09-20T07:11:32.534Z,5300
2018-09-20T07:12:38.000Z,5404
2018-09-20T07:13:44.761Z,5508
2018-09-20T07:14:47.765Z,5600
2018-09-20T07:15:55.868Z,5708
2018-09-20T07:17:02.652Z,5840
2018-09-20T07:18:08.971Z,5904
2018-09-20T07:19:15.992Z,6064
2018-09-20T07:20:25.253Z,6156
2018-09-20T07:21:31.572Z,6224
2018-09-20T07:22:38.784Z,6284
2018-09-20T07:23:46.604Z,6376
2018-09-20T07:24:51.687Z,6476
2018-09-20T07:25:56.921Z,6568
2018-09-20T07:27:04.048Z,6648
2018-09-20T07:28:09.408Z,6756
2018-09-20T07:29:17.145Z,6864
2018-09-20T07:30:25.263Z,6992
2018-09-20T07:31:31.511Z,8040
2018-09-20T07:32:37.799Z,8712
2018-09-20T07:33:40.521Z,8528
2018-09-20T07:34:44.936Z,8756
2018-09-20T07:35:47.837Z,10232
2018-09-20T07:36:51.056Z,11628
2018-09-20T07:37:54.841Z,21728
2018-09-20T07:38:57.293Z,37120
2018-09-20T07:39:59.780Z,45440
2018-09-20T07:41:02.134Z,42752
2018-09-20T07:42:04.809Z,40192
2018-09-20T07:43:07.536Z,35072
2018-09-20T07:44:09.552Z,24448
2018-09-20T07:45:11.723Z,18208
2018-09-20T07:46:13.924Z,20576
2018-09-20T07:47:16.788Z,29984
2018-09-20T07:48:20.069Z,39104
2018-09-20T07:49:23.243Z,44992
2018-09-20T07:50:26.156Z,46848
2018-09-20T07:51:28.934Z,44480
2018-09-20T07:52:32.540Z,46592
2018-09-20T07:53:36.835Z,48096
2018-09-20T07:54:40.130Z,44832
2018-09-20T07:55:42.989Z,43968
2018-09-20T07:56:45.059Z,44064
2018-09-20T07:57:47.938Z,45312
2018-09-20T07:58:50.349Z,47072
2018-09-20T07:59:52.361Z,49344
2018-09-20T08:00:54.384Z,48032
2018-09-20T08:01:56.435Z,48000
2018-09-20T08:02:58.416Z,52864
2018-09-20T08:04:01.109Z,50432
2018-09-20T08:05:03.702Z,48320
2018-09-20T08:06:05.719Z,46464
2018-09-20T08:07:07.805Z,39328
2018-09-20T08:08:09.757Z,30464
2018-09-20T08:09:12.728Z,30688
2018-09-20T08:10:14.754Z,41184
2018-09-20T08:11:16.780Z,48096
2018-09-20T08:12:18.803Z,49056
2018-09-20T08:13:20.819Z,48000
2018-09-20T08:14:22.843Z,51776
2018-09-20T08:15:25.286Z,50176
2018-09-20T08:16:27.597Z,50944
2018-09-20T08:17:29.906Z,53280
2018-09-20T08:18:32.208Z,54496
2018-09-20T08:19:34.226Z,55072
2018-09-20T08:20:36.641Z,58592
2018-09-20T08:21:38.664Z,60960
2018-09-20T08:22:40.683Z,58752
2018-09-20T08:23:43.088Z,57952
2018-09-20T08:24:45.114Z,58784
2018-09-20T08:25:47.137Z,59104
2018-09-20T08:26:49.160Z,56992
2018-09-20T08:27:52.167Z,59008
2018-09-20T08:28:54.616Z,54112
2018-09-20T08:29:56.639Z,49024
2018-09-20T08:30:58.676Z,50944
2018-09-20T08:32:00.698Z,48160
2018-09-20T08:33:02.718Z,54176
2018-09-20T08:34:04.749Z,51840
2018-09-20T08:35:06.766Z,53120
2018-09-20T08:36:08.790Z,57344
2018-09-20T08:37:10.864Z,59680
2018-09-20T08:38:12.835Z,58016
2018-09-20T08:39:14.865Z,46528
2018-09-20T08:40:16.890Z,63136
2018-09-20T08:41:19.192Z,65056
2018-09-20T08:42:21.924Z,69248
2018-09-20T08:43:24.344Z,70784
2018-09-20T08:44:26.369Z,70752
2018-09-20T08:45:28.671Z,70528
2018-09-20T08:46:30.697Z,67008
2018-09-20T08:47:32.725Z,63872
2018-09-20T08:48:34.745Z,66048
2018-09-20T08:49:36.774Z,63552
2018-09-20T08:50:38.795Z,64800
2018-09-20T08:51:40.819Z,64096
2018-09-20T08:52:42.849Z,64704
2018-09-20T08:53:44.874Z,65760
2018-09-20T08:54:46.901Z,62432
2018-09-20T08:55:48.925Z,61472
2018-09-20T08:56:51.711Z,61280
2018-09-20T08:57:53.653Z,63904
2018-09-20T08:58:55.686Z,63200
2018-09-20T08:59:58.005Z,62016
2018-09-20T09:01:00.033Z,61440
2018-09-20T09:02:02.824Z,61664
2018-09-20T09:03:05.151Z,64640
2018-09-20T09:04:07.562Z,63968
2018-09-20T09:05:09.587Z,70496
2018-09-20T09:06:11.615Z,64352
2018-09-20T09:07:13.635Z,72928
2018-09-20T09:08:15.967Z,69280
2018-09-20T09:09:17.995Z,65024
2018-09-20T09:10:20.318Z,75520
2018-09-20T09:11:22.341Z,74720
2018-09-20T09:12:24.366Z,70112
2018-09-20T09:13:26.399Z,62496
2018-09-20T09:14:28.421Z,22464
2018-09-20T09:15:30.446Z,24224
2018-09-20T09:16:32.471Z,21088
2018-09-20T09:17:34.495Z,19584
2018-09-20T09:18:36.800Z,20384
2018-09-20T09:19:38.871Z,70048
2018-09-20T09:20:40.851Z,69408
2018-09-20T09:21:42.874Z,70112
2018-09-20T09:22:44.900Z,67776
2018-09-20T09:23:46.924Z,66624
2018-09-20T09:24:48.946Z,65504
2018-09-20T09:25:50.978Z,68032
2018-09-20T09:26:53.000Z,66688
2018-09-20T09:27:55.028Z,66784
2018-09-20T09:28:57.053Z,72064
2018-09-20T09:29:59.079Z,70912
2018-09-20T09:31:01.108Z,66176
2018-09-20T09:32:03.729Z,71520
2018-09-20T09:33:06.689Z,75520
2018-09-20T09:34:09.514Z,51552
2018-09-20T09:35:11.939Z,29600
2018-09-20T09:36:15.052Z,78048
2018-09-20T09:37:17.278Z,53312
2018-09-20T09:38:19.926Z,67968
2018-09-20T09:39:22.633Z,79328
2018-09-20T09:40:25.505Z,20288
2018-09-20T09:41:27.582Z,80320
2018-09-20T09:42:30.008Z,79712
2018-09-20T09:43:32.032Z,76352
2018-09-20T09:44:34.350Z,80864
2018-09-20T09:45:36.765Z,72512
2018-09-20T09:46:38.791Z,81024
2018-09-20T09:47:41.128Z,84288
2018-09-20T09:48:43.151Z,82048
2018-09-20T09:49:45.181Z,80960
2018-09-20T09:50:47.209Z,34752
2018-09-20T09:51:49.233Z,86848
2018-09-20T09:52:51.263Z,84192
2018-09-20T09:53:53.574Z,34208
2018-09-20T09:54:55.663Z,47968
2018-09-20T09:55:57.634Z,85760
2018-09-20T09:56:59.663Z,47328
2018-09-20T09:58:01.699Z,39456
2018-09-20T09:59:04.027Z,79392
2018-09-20T10:00:06.056Z,58368
2018-09-20T10:01:08.081Z,77376
2018-09-20T10:02:10.102Z,31360
2018-09-20T10:03:12.128Z,79520
2018-09-20T10:04:14.159Z,74176
2018-09-20T10:05:16.470Z,78080
2018-09-20T10:06:18.497Z,80992
2018-09-20T10:07:20.584Z,56896
2018-09-20T10:08:23.851Z,23520
2018-09-20T10:09:25.878Z,28800
2018-09-20T10:10:27.905Z,74368
2018-09-20T10:11:30.314Z,73568
2018-09-20T10:12:32.339Z,72512
2018-09-20T10:13:34.484Z,73824
2018-09-20T10:14:36.393Z,78752
2018-09-20T10:15:38.421Z,81216
2018-09-20T10:16:40.449Z,74912
2018-09-20T10:17:42.473Z,75328
2018-09-20T10:18:44.500Z,77024
2018-09-20T10:19:46.838Z,75552
2018-09-20T10:20:49.148Z,82368
2018-09-20T10:21:51.177Z,84768
2018-09-20T10:22:54.271Z,81184
2018-09-20T10:23:56.690Z,82272
2018-09-20T10:24:58.708Z,85920
2018-09-20T10:26:00.733Z,79968
2018-09-20T10:27:03.346Z,80512
2018-09-20T10:28:05.376Z,79392
2018-09-20T10:29:07.827Z,78112
2018-09-20T10:30:10.153Z,84288
2018-09-20T10:31:12.181Z,80576
2018-09-20T10:32:14.211Z,85344
2018-09-20T10:33:16.240Z,88896
2018-09-20T10:34:18.317Z,88896
2018-09-20T10:35:20.633Z,88832
2018-09-20T10:36:22.661Z,87104
2018-09-20T10:37:24.691Z,86528
2018-09-20T10:38:27.003Z,81632
2018-09-20T10:39:29.031Z,79008
2018-09-20T10:40:31.060Z,73568
2018-09-20T10:41:33.097Z,77440
2018-09-20T10:42:35.131Z,81632
2018-09-20T10:43:37.159Z,20736
2018-09-20T10:44:39.192Z,39360
2018-09-20T10:45:41.608Z,89824
2018-09-20T10:46:43.652Z,98080
2018-09-20T10:47:45.668Z,89984
2018-09-20T10:48:47.701Z,82240
2018-09-20T10:49:49.723Z,77312
2018-09-20T10:50:52.136Z,82976
2018-09-20T10:51:54.168Z,84576
2018-09-20T10:52:56.200Z,88384
2018-09-20T10:53:58.272Z,89824
2018-09-20T10:55:00.268Z,86752
2018-09-20T10:56:02.298Z,80288
2018-09-20T10:57:04.335Z,83680
2018-09-20T10:58:06.752Z,87520
2018-09-20T10:59:08.790Z,82848
2018-09-20T11:00:10.821Z,83360
2018-09-20T11:01:12.863Z,77568
2018-09-20T11:02:14.895Z,83456
2018-09-20T11:03:17.075Z,84736
2018-09-20T11:04:20.291Z,85920
2018-09-20T11:05:24.127Z,88448
2018-09-20T11:06:27.379Z,90272
2018-09-20T11:07:30.622Z,18692
2018-09-20T11:08:33.703Z,87872
2018-09-20T11:09:37.309Z,82176
2018-09-20T11:10:40.747Z,86976
2018-09-20T11:11:43.206Z,92192
2018-09-20T11:12:45.239Z,89600
2018-09-20T11:13:47.268Z,86496
2018-09-20T11:14:49.299Z,86880
2018-09-20T11:15:51.716Z,81536
2018-09-20T11:16:53.746Z,89216
2018-09-20T11:17:56.065Z,91008
2018-09-20T11:18:58.095Z,89600
2018-09-20T11:20:00.141Z,94688
2018-09-20T11:21:02.197Z,93120
2018-09-20T11:22:04.560Z,95808
2018-09-20T11:23:06.629Z,96736
2018-09-20T11:24:09.020Z,99968
2018-09-20T11:25:11.082Z,101920
2018-09-20T11:26:13.115Z,101440
2018-09-20T11:27:15.145Z,23296
2018-09-20T11:28:17.841Z,24384
2018-09-20T11:29:19.878Z,106336
2018-09-20T11:30:21.904Z,107104
2018-09-20T11:31:23.936Z,50496
2018-09-20T11:32:25.966Z,99200
2018-09-20T11:33:27.996Z,22976
2018-09-20T11:34:30.026Z,98176
2018-09-20T11:35:32.334Z,99296
2018-09-20T11:36:34.646Z,98528
2018-09-20T11:37:36.677Z,95296
2018-09-20T11:38:38.710Z,87456
2018-09-20T11:39:40.745Z,72288
2018-09-20T11:40:42.775Z,98240
2018-09-20T11:41:44.809Z,98368
2018-09-20T11:42:47.224Z,94592
2018-09-20T11:43:49.635Z,93216
2018-09-20T11:44:51.669Z,95744
2018-09-20T11:45:53.697Z,81824
2018-09-20T11:46:55.744Z,89664
2018-09-20T11:47:57.767Z,80768
2018-09-20T11:48:59.801Z,92672
2018-09-20T11:50:01.829Z,88000
2018-09-20T11:51:03.864Z,57376
2018-09-20T11:52:05.890Z,94560
2018-09-20T11:53:07.923Z,85504
2018-09-20T11:54:10.340Z,82880
2018-09-20T11:55:12.374Z,72736
2018-09-20T11:56:14.403Z,94976
2018-09-20T11:57:16.442Z,91552
2018-09-20T11:58:18.472Z,83072
2018-09-20T11:59:20.790Z,78688
2018-09-20T12:00:22.828Z,81984
2018-09-20T12:01:24.933Z,78592
2018-09-20T12:02:27.661Z,87104
2018-09-20T12:03:29.696Z,77056
2018-09-20T12:04:31.725Z,33632
2018-09-20T12:05:33.756Z,30752
2018-09-20T12:06:35.791Z,54592
2018-09-20T12:07:37.818Z,44032
2018-09-20T12:08:40.412Z,24768
2018-09-20T12:09:42.450Z,21792
2018-09-20T12:10:44.483Z,42144
2018-09-20T12:11:46.520Z,53088
2018-09-20T12:12:48.849Z,86816
2018-09-20T12:13:50.989Z,70784
2018-09-20T12:14:53.324Z,31168
2018-09-20T12:15:55.741Z,50816
2018-09-20T12:16:57.779Z,24512
2018-09-20T12:17:59.812Z,21408
2018-09-20T12:19:01.853Z,20064
2018-09-20T12:20:03.922Z,19904
2018-09-20T12:21:06.309Z,20448
2018-09-20T12:22:08.627Z,24864
2018-09-20T12:23:10.663Z,25632
2018-09-20T12:24:12.972Z,40704
2018-09-20T12:25:15.010Z,22528
2018-09-20T12:26:17.044Z,20928
2018-09-20T12:27:19.769Z,20672
2018-09-20T12:28:21.827Z,32512
2018-09-20T12:29:23.932Z,25504
2018-09-20T12:30:25.972Z,21824
2018-09-20T12:31:28.046Z,20864
2018-09-20T12:32:30.061Z,29792
2018-09-20T12:33:32.401Z,41344
2018-09-20T12:34:34.430Z,29120
2018-09-20T12:35:36.994Z,30048
2018-09-20T12:36:38.883Z,33856
2018-09-20T12:37:41.021Z,52160
2018-09-20T12:38:43.232Z,50080
2018-09-20T12:39:46.422Z,25856
2018-09-20T12:40:50.231Z,22688
2018-09-20T12:41:53.705Z,21408
2018-09-20T12:42:58.255Z,22752
2018-09-20T12:44:04.698Z,23552
2018-09-20T12:45:09.656Z,24320
2018-09-20T12:46:14.006Z,26080
2018-09-20T12:47:16.864Z,25664
2018-09-20T12:48:19.949Z,26752
2018-09-20T12:49:23.553Z,29600
2018-09-20T12:50:26.682Z,31168
2018-09-20T12:51:29.448Z,31520
2018-09-20T12:52:34.229Z,37248
2018-09-20T12:53:38.672Z,50528
2018-09-20T12:54:42.214Z,41760
2018-09-20T12:55:46.723Z,29344
2018-09-20T12:56:49.810Z,23136
2018-09-20T12:57:52.349Z,22208
2018-09-20T12:58:56.534Z,26816
2018-09-20T12:59:59.456Z,27616
2018-09-20T13:01:03.339Z,26144
2018-09-20T13:02:06.840Z,22336
2018-09-20T13:03:10.825Z,30816
2018-09-20T13:04:13.514Z,29888
2018-09-20T13:05:16.960Z,36896
2018-09-20T13:06:20.948Z,30976
2018-09-20T13:07:29.491Z,38240
2018-09-20T13:08:35.494Z,41984
2018-09-20T13:09:41.289Z,39392
2018-09-20T13:10:47.227Z,26176
2018-09-20T13:11:50.590Z,41408
2018-09-20T13:12:56.078Z,37472
2018-09-20T13:14:01.575Z,32096
2018-09-20T13:15:08.609Z,50816
2018-09-20T13:16:12.830Z,43168
2018-09-20T13:17:16.928Z,45184
2018-09-20T13:18:21.105Z,38368
2018-09-20T13:19:25.927Z,26880
2018-09-20T13:20:31.034Z,25536
2018-09-20T13:21:35.817Z,21088
2018-09-20T13:22:42.014Z,22080
2018-09-20T13:23:46.539Z,56608
2018-09-20T13:24:51.475Z,49760
2018-09-20T13:25:59.775Z,33088
2018-09-20T13:27:07.982Z,29408
2018-09-20T13:28:14.071Z,21472
2018-09-20T13:29:21.078Z,26720
2018-09-20T13:30:25.454Z,21152
2018-09-20T13:31:30.501Z,23200
2018-09-20T13:32:34.536Z,22080
2018-09-20T13:33:40.548Z,19968
2018-09-20T13:34:45.051Z,22560
2018-09-20T13:35:49.473Z,23008
2018-09-20T13:36:54.165Z,22080
2018-09-20T13:37:58.834Z,22144
2018-09-20T13:39:03.079Z,18100
2018-09-20T13:40:10.535Z,19584
2018-09-20T13:41:16.659Z,22208
2018-09-20T13:42:22.144Z,28992
2018-09-20T13:43:26.544Z,25792
2018-09-20T13:44:31.516Z,25856
2018-09-20T13:45:35.332Z,23584
2018-09-20T13:46:40.707Z,24736
2018-09-20T13:47:45.548Z,21216
2018-09-20T13:48:48.264Z,22272
2018-09-20T13:49:52.509Z,23136
2018-09-20T13:50:55.633Z,22464
2018-09-20T13:51:59.017Z,22720
2018-09-20T13:53:05.045Z,21984
2018-09-20T13:54:07.892Z,36032
2018-09-20T13:55:11.779Z,26944
2018-09-20T13:56:14.845Z,31104
2018-09-20T13:57:17.755Z,19936
2018-09-20T13:58:21.322Z,19232
2018-09-20T13:59:24.123Z,26720
2018-09-20T14:00:27.525Z,22016
2018-09-20T14:01:31.268Z,22432
2018-09-20T14:02:33.732Z,27264
2018-09-20T14:03:37.702Z,22496
2018-09-20T14:04:41.082Z,21280
2018-09-20T14:05:44.390Z,25472
2018-09-20T14:06:46.858Z,20640
2018-09-20T14:07:49.806Z,16484
2018-09-20T14:08:52.900Z,16292
2018-09-20T14:09:55.909Z,16660
2018-09-20T14:10:58.812Z,15216
2018-09-20T14:12:03.223Z,14988
2018-09-20T14:13:07.203Z,14240
2018-09-20T14:14:10.557Z,13600
2018-09-20T14:15:13.689Z,13944
2018-09-20T14:16:18.741Z,15796
2018-09-20T14:17:22.580Z,14160
2018-09-20T14:18:27.077Z,13644